createdAt,value
2018-11-22T12:17:49.928Z,5.00
2018-11-22T12:20:18.633Z,5.20
2018-11-22T12:22:48.239Z,5.20
2018-11-22T12:25:17.908Z,5.10
2018-11-22T12:27:47.465Z,5.10
2018-11-22T12:30:17.732Z,5.10
2018-11-22T12:32:51.200Z,5.10
2018-11-22T12:35:24.842Z,5.00
2018-11-22T12:37:58.549Z,4.80
2018-11-22T12:40:26.829Z,4.70
2018-11-22T12:42:55.144Z,4.60
2018-11-22T12:45:23.475Z,4.70
2018-11-22T12:47:51.706Z,4.70
2018-11-22T12:50:20.009Z,4.80
2018-11-22T12:52:48.264Z,5.00
2018-11-22T12:55:16.539Z,5.00
2018-11-22T12:57:46.060Z,5.10
2018-11-22T13:00:15.515Z,5.20
2018-11-22T13:02:44.007Z,5.20
2018-11-22T13:05:13.475Z,5.10
2018-11-22T13:07:41.815Z,4.80
2018-11-22T13:10:12.223Z,5.00
2018-11-22T13:12:41.084Z,5.20
2018-11-22T13:15:10.972Z,5.30
2018-11-22T13:17:39.374Z,5.30
2018-11-22T13:20:10.746Z,5.10
2018-11-22T13:22:39.120Z,5.00
2018-11-22T13:25:09.400Z,5.00
2018-11-22T13:27:37.791Z,4.90
2018-11-22T13:30:09.634Z,5.00
2018-11-22T13:32:37.862Z,5.10
2018-11-22T13:35:07.893Z,5.00
2018-11-22T13:37:36.117Z,4.90
2018-11-22T13:40:05.287Z,4.90
2018-11-22T13:42:33.810Z,5.00
2018-11-22T13:45:06.265Z,4.90
2018-11-22T13:47:34.657Z,4.60
2018-11-22T13:50:02.900Z,4.50
2018-11-22T13:52:37.084Z,4.60
2018-11-22T14:12:17.184Z,4.50
2018-11-22T14:14:45.380Z,4.50
2018-11-22T14:17:13.641Z,4.40
2018-11-22T14:19:41.950Z,4.50
2018-11-22T14:22:10.196Z,4.60
2018-11-22T14:24:38.469Z,4.70
2018-11-22T14:27:06.704Z,4.60
2018-11-22T14:29:35.117Z,4.60
2018-11-22T14:32:03.425Z,4.70
2018-11-22T14:34:31.637Z,4.60
2018-11-22T14:36:59.852Z,4.50
2018-11-22T14:39:28.183Z,4.60
2018-11-22T14:41:57.010Z,4.60
2018-11-22T14:44:25.181Z,4.60
2018-11-22T14:46:53.406Z,4.50
2018-11-22T14:49:21.891Z,4.60
2018-11-22T14:51:51.265Z,4.70
2018-11-22T14:54:19.494Z,4.80
2018-11-22T14:56:47.813Z,4.90
2018-11-22T14:59:16.141Z,4.90
2018-11-22T15:01:44.366Z,4.80
2018-11-22T15:04:12.635Z,4.90
2018-11-22T15:06:40.921Z,4.90
2018-11-22T15:09:09.800Z,4.80
2018-11-22T15:11:38.226Z,4.60
2018-11-22T15:14:06.772Z,4.60
2018-11-22T15:16:35.059Z,4.60
2018-11-22T15:19:03.389Z,4.60
2018-11-22T15:21:31.700Z,4.50
2018-11-22T15:23:59.948Z,4.50
2018-11-22T15:26:28.246Z,4.50
2018-11-22T15:28:56.458Z,4.50
2018-11-22T15:31:24.673Z,4.60
2018-11-22T15:33:53.000Z,4.50
2018-11-22T15:36:21.239Z,4.40
2018-11-22T15:38:49.517Z,4.30
2018-11-22T15:41:17.770Z,4.20
2018-11-22T15:43:45.981Z,4.30
2018-11-22T15:46:14.351Z,4.40
2018-11-22T15:48:42.596Z,4.60
2018-11-22T15:51:10.992Z,4.50
2018-11-22T15:53:39.254Z,4.50
2018-11-22T15:56:07.484Z,4.40
2018-11-22T15:58:35.738Z,4.40
2018-11-22T16:01:04.050Z,4.30
2018-11-22T16:03:32.312Z,4.30
2018-11-22T16:06:00.625Z,4.30
2018-11-22T16:08:28.903Z,4.30
2018-11-22T16:10:58.144Z,4.40
2018-11-22T16:13:26.475Z,4.50
2018-11-22T16:15:55.345Z,4.60
2018-11-22T16:18:23.565Z,4.70
2018-11-22T16:20:51.869Z,4.60
2018-11-22T16:23:20.133Z,4.60
2018-11-22T16:25:48.434Z,4.70
2018-11-22T16:28:16.769Z,4.60
2018-11-22T16:30:45.047Z,4.60
2018-11-22T16:33:13.255Z,4.60
2018-11-22T16:35:41.530Z,4.50
2018-11-22T16:38:09.876Z,4.60
2018-11-22T16:40:38.249Z,4.70
2018-11-22T16:43:06.757Z,4.80
2018-11-22T16:45:36.444Z,4.80
2018-11-22T16:48:07.195Z,4.80
2018-11-22T16:50:36.620Z,4.60
2018-11-22T16:53:05.394Z,4.50
2018-11-22T16:55:33.651Z,4.30
2018-11-22T16:58:02.555Z,4.40
2018-11-22T17:00:33.082Z,4.40
2018-11-22T17:03:03.511Z,4.50
2018-11-22T17:05:31.969Z,4.40
2018-11-22T17:08:01.171Z,4.40
2018-11-22T17:10:30.410Z,4.60
2018-11-22T17:12:59.691Z,4.60
2018-11-22T17:15:29.675Z,4.60
2018-11-22T17:17:58.459Z,4.80
2018-11-22T17:20:27.593Z,4.80
2018-11-22T17:22:55.973Z,4.60
2018-11-22T17:25:25.665Z,4.50
2018-11-22T17:27:55.488Z,4.40
2018-11-22T17:30:25.511Z,4.40
2018-11-22T17:32:53.746Z,4.40
2018-11-22T17:35:23.412Z,4.50
2018-11-22T17:37:52.000Z,4.60
2018-11-22T17:40:24.462Z,4.60
2018-11-22T17:42:53.081Z,4.60
2018-11-22T17:45:21.867Z,4.60
2018-11-22T17:47:50.355Z,4.60
2018-11-22T17:50:18.713Z,4.60
2018-11-22T17:52:47.165Z,4.60
2018-11-22T17:55:17.400Z,4.50
2018-11-22T17:57:45.740Z,4.40
2018-11-22T18:00:16.621Z,4.40
2018-11-22T18:02:46.365Z,4.40
2018-11-22T18:05:14.733Z,4.40
2018-11-22T18:07:43.183Z,4.40
2018-11-22T18:10:13.808Z,4.40
2018-11-22T18:12:43.383Z,4.30
2018-11-22T18:15:13.205Z,4.40
2018-11-22T18:17:41.458Z,4.50
2018-11-22T18:20:13.368Z,4.40
2018-11-22T18:22:41.894Z,4.40
2018-11-22T18:25:12.746Z,4.40
2018-11-22T18:27:41.088Z,4.40
2018-11-22T18:30:13.138Z,4.40
2018-11-22T18:32:41.576Z,4.50
2018-11-22T18:35:11.290Z,4.50
2018-11-22T18:37:39.595Z,4.30
2018-11-22T18:40:12.826Z,4.40
2018-11-22T18:42:41.059Z,4.40
2018-11-22T18:45:10.996Z,4.50
2018-11-22T18:47:39.557Z,4.60
2018-11-22T18:50:15.646Z,4.60
2018-11-22T18:52:40.042Z,4.40
2018-11-22T18:55:08.938Z,4.30
2018-11-22T18:57:37.418Z,4.30
2018-11-22T19:00:10.097Z,4.40
2018-11-22T19:02:38.370Z,4.40
2018-11-22T19:05:07.449Z,4.50
2018-11-22T19:07:35.675Z,4.50
2018-11-22T19:10:04.330Z,4.40
2018-11-22T19:12:32.596Z,4.40
2018-11-22T19:15:01.363Z,4.40
2018-11-22T19:17:29.617Z,4.50
2018-11-22T19:19:57.836Z,4.50
2018-11-22T19:22:26.046Z,4.40
2018-11-22T19:24:54.386Z,4.50
2018-11-22T19:27:22.607Z,4.40
2018-11-22T19:29:50.906Z,4.40
2018-11-22T19:32:19.197Z,4.40
2018-11-22T19:34:47.462Z,4.30
2018-11-22T19:37:15.736Z,4.30
2018-11-22T19:39:44.561Z,4.40
2018-11-22T19:42:12.878Z,4.30
2018-11-22T19:44:41.416Z,4.30
2018-11-22T19:47:10.231Z,4.40
2018-11-22T19:49:38.435Z,4.30
2018-11-22T19:52:06.685Z,4.30
2018-11-22T19:54:34.981Z,4.30
2018-11-22T19:57:03.538Z,4.30
2018-11-22T19:59:31.860Z,4.30
2018-11-22T20:02:00.049Z,4.40
2018-11-22T20:04:28.301Z,4.50
2018-11-22T20:06:56.574Z,4.30
2018-11-22T20:09:24.988Z,4.40
2018-11-22T20:11:53.332Z,4.30
2018-11-22T20:14:21.641Z,4.40
2018-11-22T20:16:49.882Z,4.40
2018-11-22T20:19:18.116Z,4.50
2018-11-22T20:21:46.532Z,4.50
2018-11-22T20:24:14.810Z,4.40
2018-11-22T20:26:43.062Z,4.50
2018-11-22T20:29:11.402Z,4.50
2018-11-22T20:31:39.681Z,4.40
2018-11-22T20:34:07.919Z,4.30
2018-11-22T20:36:36.214Z,4.30
2018-11-22T20:39:07.707Z,4.20
2018-11-22T20:41:35.986Z,4.20
2018-11-22T20:44:04.768Z,4.20
2018-11-22T20:46:33.066Z,4.20
2018-11-22T20:49:01.361Z,4.20
2018-11-22T20:51:29.604Z,4.20
2018-11-22T21:28:37.124Z,4.40
2018-11-22T21:31:05.528Z,4.30
2018-11-22T21:33:34.723Z,4.20
2018-11-22T21:36:02.184Z,4.10
2018-11-22T21:38:30.515Z,4.10
2018-11-22T21:40:58.938Z,4.10
2018-11-22T21:43:27.214Z,4.10
2018-11-22T21:45:55.513Z,4.10
2018-11-22T21:48:24.154Z,4.10
2018-11-22T21:50:52.975Z,4.20
2018-11-22T21:53:21.817Z,4.20
2018-11-22T21:55:50.088Z,4.20
2018-11-22T21:58:18.358Z,4.20
2018-11-22T22:00:46.674Z,4.30
2018-11-22T22:03:14.958Z,4.30
2018-11-22T22:05:43.170Z,4.20
2018-11-22T22:08:11.395Z,4.30
2018-11-22T22:10:39.665Z,4.20
2018-11-22T22:13:07.962Z,4.30
2018-11-22T22:15:37.150Z,4.30
2018-11-22T22:18:06.432Z,4.40
2018-11-22T22:20:35.572Z,4.50
2018-11-22T22:23:03.792Z,4.50
2018-11-22T22:25:32.261Z,4.60
2018-11-22T22:28:00.871Z,4.60
2018-11-22T22:30:30.744Z,4.50
2018-11-22T22:33:00.641Z,4.30
2018-11-22T22:35:28.896Z,4.30
2018-11-22T22:37:57.146Z,4.30
2018-11-22T22:40:26.592Z,4.40
2018-11-22T22:42:55.841Z,4.40
2018-11-22T22:45:25.865Z,4.40
2018-11-22T22:47:55.096Z,4.40
2018-11-22T22:50:24.948Z,4.50
2018-11-22T22:52:54.586Z,4.50
2018-11-22T22:55:23.197Z,4.60
2018-11-22T22:57:51.447Z,4.60
2018-11-22T23:00:26.056Z,4.70
2018-11-22T23:02:56.417Z,4.70
2018-11-22T23:05:25.450Z,4.70
2018-11-22T23:07:53.850Z,4.70
2018-11-22T23:10:22.559Z,4.60
2018-11-22T23:12:51.041Z,4.60
2018-11-22T23:15:19.963Z,4.60
2018-11-22T23:17:48.291Z,4.60
2018-11-22T23:20:19.340Z,4.70
2018-11-22T23:22:48.031Z,4.70
2018-11-22T23:25:17.114Z,4.70
2018-11-22T23:27:45.370Z,4.70
2018-11-22T23:30:16.201Z,4.60
2018-11-22T23:32:45.811Z,4.30
2018-11-22T23:35:14.056Z,4.40
2018-11-22T23:37:42.701Z,4.30
2018-11-22T23:40:13.004Z,4.40
2018-11-22T23:42:41.576Z,4.40
2018-11-22T23:45:11.219Z,4.40
2018-11-22T23:47:40.148Z,4.40
2018-11-22T23:50:10.244Z,4.50
2018-11-22T23:52:38.457Z,4.40
2018-11-22T23:55:07.170Z,4.40
2018-11-22T23:57:35.437Z,4.40
